Fairmount Heights, Maryland
Current Conditions -  °F | °C
As of 11:58 PM on Wednesday 22 Oct 2014 (Local Time) from KADW Reporting Station
Overcast Overcast  
Wind Chill: 52°   Ceiling: 5500
Heat Index: 52°   Visibility: 10mi
Dew Point: 44°   Wind: 17mph
Humidity: 73%   Direction: 310°NW
Pressure: 29.91"   Gusts: 26mph
Location:  38.8854°N, 76.8965°W
Report Text: KADW 230358Z AUTO 31015G23KT 10SM OVC055 11/07 A2991 RMK AO2 RAB0328E0329DZB0329E0339 SLP135 P0000 T01130066 $
Loading
Personal Weather Stations






























Interactive Weather Map
Tropical Storm Tracking
New forecast layout! Learn more

10-Day Weather Forecast

Advertisements
Track Severe Weather on mobile